sensor_id;sensor_type;location;lat;lon;timestamp;P1;durP1;ratioP1;P2;durP2;ratioP2
64894;SDS011;51588;53.702;10.208;2022-07-10T00:01:56;1.83;;;0.90;;
64894;SDS011;51588;53.702;10.208;2022-07-10T00:04:22;2.53;;;1.50;;
64894;SDS011;51588;53.702;10.208;2022-07-10T00:06:48;1.53;;;0.90;;
64894;SDS011;51588;53.702;10.208;2022-07-10T00:09:16;1.87;;;0.93;;
64894;SDS011;51588;53.702;10.208;2022-07-10T00:11:42;1.43;;;0.93;;
64894;SDS011;51588;53.702;10.208;2022-07-10T00:14:09;2.50;;;0.93;;
64894;SDS011;51588;53.702;10.208;2022-07-10T00:16:35;1.80;;;1.00;;
64894;SDS011;51588;53.702;10.208;2022-07-10T00:19:02;2.00;;;0.97;;
64894;SDS011;51588;53.702;10.208;2022-07-10T00:21:28;3.03;;;1.10;;
64894;SDS011;51588;53.702;10.208;2022-07-10T00:23:55;2.80;;;0.90;;
64894;SDS011;51588;53.702;10.208;2022-07-10T00:26:22;1.43;;;0.90;;
64894;SDS011;51588;53.702;10.208;2022-07-10T00:28:49;2.27;;;1.20;;
64894;SDS011;51588;53.702;10.208;2022-07-10T00:31:15;4.07;;;0.87;;
64894;SDS011;51588;53.702;10.208;2022-07-10T00:33:42;2.20;;;1.00;;
64894;SDS011;51588;53.702;10.208;2022-07-10T00:36:08;1.87;;;1.00;;
64894;SDS011;51588;53.702;10.208;2022-07-10T00:38:34;1.97;;;0.93;;
64894;SDS011;51588;53.702;10.208;2022-07-10T00:41:01;1.93;;;1.00;;
64894;SDS011;51588;53.702;10.208;2022-07-10T00:43:29;2.20;;;1.40;;
64894;SDS011;51588;53.702;10.208;2022-07-10T00:45:55;1.80;;;1.00;;
64894;SDS011;51588;53.702;10.208;2022-07-10T00:48:22;2.70;;;1.20;;
64894;SDS011;51588;53.702;10.208;2022-07-10T00:50:48;2.80;;;0.90;;
64894;SDS011;51588;53.702;10.208;2022-07-10T00:53:14;1.30;;;0.90;;
64894;SDS011;51588;53.702;10.208;2022-07-10T00:55:41;2.03;;;0.97;;
64894;SDS011;51588;53.702;10.208;2022-07-10T00:58:07;1.30;;;0.90;;
64894;SDS011;51588;53.702;10.208;2022-07-10T01:00:36;1.67;;;0.90;;
64894;SDS011;51588;53.702;10.208;2022-07-10T01:03:03;1.37;;;0.80;;
64894;SDS011;51588;53.702;10.208;2022-07-10T01:05:30;1.87;;;0.80;;
64894;SDS011;51588;53.702;10.208;2022-07-10T01:07:57;3.03;;;0.97;;
64894;SDS011;51588;53.702;10.208;2022-07-10T01:10:23;2.03;;;1.23;;
64894;SDS011;51588;53.702;10.208;2022-07-10T01:12:49;1.80;;;0.90;;
64894;SDS011;51588;53.702;10.208;2022-07-10T01:15:16;1.37;;;0.90;;
64894;SDS011;51588;53.702;10.208;2022-07-10T01:17:43;2.13;;;1.00;;
64894;SDS011;51588;53.702;10.208;2022-07-10T01:20:10;0.90;;;0.70;;
64894;SDS011;51588;53.702;10.208;2022-07-10T01:22:38;2.80;;;1.13;;
64894;SDS011;51588;53.702;10.208;2022-07-10T01:25:05;2.27;;;1.10;;
64894;SDS011;51588;53.702;10.208;2022-07-10T01:27:32;2.50;;;0.93;;
64894;SDS011;51588;53.702;10.208;2022-07-10T01:29:58;2.10;;;0.90;;
64894;SDS011;51588;53.702;10.208;2022-07-10T01:32:25;1.40;;;0.83;;
64894;SDS011;51588;53.702;10.208;2022-07-10T01:34:51;3.37;;;0.83;;
64894;SDS011;51588;53.702;10.208;2022-07-10T01:37:17;4.00;;;1.40;;
64894;SDS011;51588;53.702;10.208;2022-07-10T01:39:45;1.83;;;0.80;;
64894;SDS011;51588;53.702;10.208;2022-07-10T01:42:11;2.57;;;1.17;;
64894;SDS011;51588;53.702;10.208;2022-07-10T01:44:38;2.60;;;1.23;;
64894;SDS011;51588;53.702;10.208;2022-07-10T01:47:04;1.53;;;1.00;;
64894;SDS011;51588;53.702;10.208;2022-07-10T01:49:30;2.80;;;1.00;;
64894;SDS011;51588;53.702;10.208;2022-07-10T01:51:58;1.67;;;1.00;;
64894;SDS011;51588;53.702;10.208;2022-07-10T01:54:25;2.80;;;1.17;;
64894;SDS011;51588;53.702;10.208;2022-07-10T01:56:52;3.00;;;1.17;;
64894;SDS011;51588;53.702;10.208;2022-07-10T01:59:19;1.30;;;0.80;;
64894;SDS011;51588;53.702;10.208;2022-07-10T02:01:45;1.57;;;1.07;;
64894;SDS011;51588;53.702;10.208;2022-07-10T02:04:11;3.67;;;1.10;;
64894;SDS011;51588;53.702;10.208;2022-07-10T02:06:55;1.90;;;0.90;;
64894;SDS011;51588;53.702;10.208;2022-07-10T02:09:21;1.60;;;0.90;;
64894;SDS011;51588;53.702;10.208;2022-07-10T02:11:48;1.90;;;1.00;;
64894;SDS011;51588;53.702;10.208;2022-07-10T02:14:15;2.10;;;1.00;;
64894;SDS011;51588;53.702;10.208;2022-07-10T02:16:42;2.70;;;1.13;;
64894;SDS011;51588;53.702;10.208;2022-07-10T02:19:09;2.07;;;0.90;;
64894;SDS011;51588;53.702;10.208;2022-07-10T02:21:36;2.83;;;0.93;;
64894;SDS011;51588;53.702;10.208;2022-07-10T02:24:02;2.80;;;1.20;;
64894;SDS011;51588;53.702;10.208;2022-07-10T02:26:29;2.47;;;1.27;;
64894;SDS011;51588;53.702;10.208;2022-07-10T02:28:55;4.33;;;1.53;;
64894;SDS011;51588;53.702;10.208;2022-07-10T02:31:23;2.43;;;1.20;;
64894;SDS011;51588;53.702;10.208;2022-07-10T02:33:49;1.87;;;1.00;;
64894;SDS011;51588;53.702;10.208;2022-07-10T02:36:16;2.00;;;1.10;;
64894;SDS011;51588;53.702;10.208;2022-07-10T02:38:42;3.17;;;1.10;;
64894;SDS011;51588;53.702;10.208;2022-07-10T02:41:08;2.50;;;1.40;;
64894;SDS011;51588;53.702;10.208;2022-07-10T02:43:35;2.50;;;1.20;;
64894;SDS011;51588;53.702;10.208;2022-07-10T02:46:01;1.50;;;1.00;;
64894;SDS011;51588;53.702;10.208;2022-07-10T02:48:29;2.90;;;1.10;;
64894;SDS011;51588;53.702;10.208;2022-07-10T02:50:55;3.00;;;1.33;;
64894;SDS011;51588;53.702;10.208;2022-07-10T02:53:22;3.20;;;1.30;;
64894;SDS011;51588;53.702;10.208;2022-07-10T02:55:48;1.73;;;1.00;;
64894;SDS011;51588;53.702;10.208;2022-07-10T02:58:14;2.40;;;1.37;;
64894;SDS011;51588;53.702;10.208;2022-07-10T03:00:42;1.17;;;1.07;;
64894;SDS011;51588;53.702;10.208;2022-07-10T03:03:09;3.23;;;1.40;;
64894;SDS011;51588;53.702;10.208;2022-07-10T03:05:37;3.77;;;1.27;;
64894;SDS011;51588;53.702;10.208;2022-07-10T03:08:03;2.60;;;1.30;;
64894;SDS011;51588;53.702;10.208;2022-07-10T03:10:30;2.23;;;1.10;;
64894;SDS011;51588;53.702;10.208;2022-07-10T03:12:56;3.03;;;1.43;;
64894;SDS011;51588;53.702;10.208;2022-07-10T03:15:22;2.20;;;1.20;;
64894;SDS011;51588;53.702;10.208;2022-07-10T03:17:49;2.50;;;1.20;;
64894;SDS011;51588;53.702;10.208;2022-07-10T03:20:15;5.70;;;1.37;;
64894;SDS011;51588;53.702;10.208;2022-07-10T03:22:43;2.50;;;1.20;;
64894;SDS011;51588;53.702;10.208;2022-07-10T03:25:09;1.93;;;1.03;;
64894;SDS011;51588;53.702;10.208;2022-07-10T03:27:36;3.00;;;1.20;;
64894;SDS011;51588;53.702;10.208;2022-07-10T03:30:02;2.00;;;1.40;;
64894;SDS011;51588;53.702;10.208;2022-07-10T03:32:29;3.33;;;1.40;;
64894;SDS011;51588;53.702;10.208;2022-07-10T03:34:55;2.80;;;1.27;;
64894;SDS011;51588;53.702;10.208;2022-07-10T03:37:21;3.33;;;1.47;;
64894;SDS011;51588;53.702;10.208;2022-07-10T03:39:49;2.43;;;1.20;;
64894;SDS011;51588;53.702;10.208;2022-07-10T03:42:15;2.30;;;1.33;;
64894;SDS011;51588;53.702;10.208;2022-07-10T03:44:42;2.40;;;1.20;;
64894;SDS011;51588;53.702;10.208;2022-07-10T03:47:08;4.00;;;1.83;;
64894;SDS011;51588;53.702;10.208;2022-07-10T03:49:34;3.30;;;1.60;;
64894;SDS011;51588;53.702;10.208;2022-07-10T03:52:01;3.30;;;1.53;;
64894;SDS011;51588;53.702;10.208;2022-07-10T03:54:29;2.13;;;1.30;;
64894;SDS011;51588;53.702;10.208;2022-07-10T03:56:56;3.37;;;2.20;;
64894;SDS011;51588;53.702;10.208;2022-07-10T03:59:40;5.13;;;1.50;;
64894;SDS011;51588;53.702;10.208;2022-07-10T04:02:07;3.37;;;1.30;;
64894;SDS011;51588;53.702;10.208;2022-07-10T04:04:33;2.83;;;1.43;;
64894;SDS011;51588;53.702;10.208;2022-07-10T04:07:00;4.10;;;1.50;;
64894;SDS011;51588;53.702;10.208;2022-07-10T04:09:26;5.67;;;1.70;;
64894;SDS011;51588;53.702;10.208;2022-07-10T04:11:52;3.23;;;1.27;;
64894;SDS011;51588;53.702;10.208;2022-07-10T04:14:20;5.07;;;1.50;;
64894;SDS011;51588;53.702;10.208;2022-07-10T04:16:46;2.50;;;1.50;;
64894;SDS011;51588;53.702;10.208;2022-07-10T04:19:13;4.07;;;1.77;;
64894;SDS011;51588;53.702;10.208;2022-07-10T04:21:39;3.80;;;1.50;;
64894;SDS011;51588;53.702;10.208;2022-07-10T04:24:05;2.90;;;1.50;;
64894;SDS011;51588;53.702;10.208;2022-07-10T04:26:32;2.20;;;1.40;;
64894;SDS011;51588;53.702;10.208;2022-07-10T04:28:58;4.20;;;1.70;;
64894;SDS011;51588;53.702;10.208;2022-07-10T04:31:26;2.87;;;1.53;;
64894;SDS011;51588;53.702;10.208;2022-07-10T04:33:52;4.80;;;1.80;;
64894;SDS011;51588;53.702;10.208;2022-07-10T04:36:20;2.47;;;1.60;;
64894;SDS011;51588;53.702;10.208;2022-07-10T04:38:46;3.47;;;1.70;;
64894;SDS011;51588;53.702;10.208;2022-07-10T04:41:13;5.67;;;1.87;;
64894;SDS011;51588;53.702;10.208;2022-07-10T04:43:39;3.70;;;1.87;;
64894;SDS011;51588;53.702;10.208;2022-07-10T04:46:05;2.33;;;1.50;;
64894;SDS011;51588;53.702;10.208;2022-07-10T04:48:34;4.20;;;1.80;;
64894;SDS011;51588;53.702;10.208;2022-07-10T04:51:00;3.50;;;1.40;;
64894;SDS011;51588;53.702;10.208;2022-07-10T04:53:26;4.40;;;1.73;;
64894;SDS011;51588;53.702;10.208;2022-07-10T04:55:53;3.83;;;1.70;;
64894;SDS011;51588;53.702;10.208;2022-07-10T04:58:19;3.93;;;1.60;;
64894;SDS011;51588;53.702;10.208;2022-07-10T05:00:45;5.80;;;1.77;;
64894;SDS011;51588;53.702;10.208;2022-07-10T05:03:12;2.97;;;1.30;;
64894;SDS011;51588;53.702;10.208;2022-07-10T05:05:42;5.77;;;1.70;;
64894;SDS011;51588;53.702;10.208;2022-07-10T05:08:08;3.70;;;1.90;;
64894;SDS011;51588;53.702;10.208;2022-07-10T05:10:34;2.83;;;1.40;;
64894;SDS011;51588;53.702;10.208;2022-07-10T05:13:01;4.30;;;1.87;;
64894;SDS011;51588;53.702;10.208;2022-07-10T05:15:27;4.50;;;1.70;;
64894;SDS011;51588;53.702;10.208;2022-07-10T05:17:53;3.73;;;2.20;;
64894;SDS011;51588;53.702;10.208;2022-07-10T05:20:20;4.00;;;1.77;;
64894;SDS011;51588;53.702;10.208;2022-07-10T05:22:47;2.23;;;1.53;;
64894;SDS011;51588;53.702;10.208;2022-07-10T05:25:14;4.40;;;1.80;;
64894;SDS011;51588;53.702;10.208;2022-07-10T05:27:40;2.70;;;1.67;;
64894;SDS011;51588;53.702;10.208;2022-07-10T05:30:07;4.17;;;1.90;;
64894;SDS011;51588;53.702;10.208;2022-07-10T05:32:33;4.80;;;1.90;;
64894;SDS011;51588;53.702;10.208;2022-07-10T05:35:00;3.27;;;1.70;;
64894;SDS011;51588;53.702;10.208;2022-07-10T05:37:26;4.77;;;1.80;;
64894;SDS011;51588;53.702;10.208;2022-07-10T05:39:54;5.93;;;1.90;;
64894;SDS011;51588;53.702;10.208;2022-07-10T05:42:20;3.67;;;2.00;;
64894;SDS011;51588;53.702;10.208;2022-07-10T05:44:46;3.30;;;1.70;;
64894;SDS011;51588;53.702;10.208;2022-07-10T05:47:13;5.10;;;1.90;;
64894;SDS011;51588;53.702;10.208;2022-07-10T05:49:39;3.30;;;1.50;;
64894;SDS011;51588;53.702;10.208;2022-07-10T05:52:06;2.87;;;1.73;;
64894;SDS011;51588;53.702;10.208;2022-07-10T05:54:32;3.57;;;1.70;;
64894;SDS011;51588;53.702;10.208;2022-07-10T05:57:00;3.20;;;1.77;;
64894;SDS011;51588;53.702;10.208;2022-07-10T05:59:26;3.10;;;1.87;;
64894;SDS011;51588;53.702;10.208;2022-07-10T06:01:53;2.13;;;1.50;;
64894;SDS011;51588;53.702;10.208;2022-07-10T06:04:19;4.83;;;2.07;;
64894;SDS011;51588;53.702;10.208;2022-07-10T06:06:45;5.07;;;2.00;;
64894;SDS011;51588;53.702;10.208;2022-07-10T06:09:12;5.03;;;2.13;;
64894;SDS011;51588;53.702;10.208;2022-07-10T06:11:39;2.33;;;1.53;;
64894;SDS011;51588;53.702;10.208;2022-07-10T06:14:08;3.57;;;1.83;;
64894;SDS011;51588;53.702;10.208;2022-07-10T06:16:34;6.60;;;1.73;;
64894;SDS011;51588;53.702;10.208;2022-07-10T06:19:00;4.17;;;2.00;;
64894;SDS011;51588;53.702;10.208;2022-07-10T06:21:27;4.13;;;1.77;;
64894;SDS011;51588;53.702;10.208;2022-07-10T06:23:53;3.70;;;1.80;;
64894;SDS011;51588;53.702;10.208;2022-07-10T06:26:19;5.23;;;1.97;;
64894;SDS011;51588;53.702;10.208;2022-07-10T06:28:46;3.00;;;1.73;;
64894;SDS011;51588;53.702;10.208;2022-07-10T06:31:14;5.00;;;1.80;;
64894;SDS011;51588;53.702;10.208;2022-07-10T06:33:40;10.27;;;1.83;;
64894;SDS011;51588;53.702;10.208;2022-07-10T06:36:06;7.60;;;1.97;;
64894;SDS011;51588;53.702;10.208;2022-07-10T06:38:33;6.40;;;2.07;;
64894;SDS011;51588;53.702;10.208;2022-07-10T06:40:59;3.47;;;1.90;;
64894;SDS011;51588;53.702;10.208;2022-07-10T06:43:26;4.83;;;2.10;;
64894;SDS011;51588;53.702;10.208;2022-07-10T06:45:52;4.23;;;1.83;;
64894;SDS011;51588;53.702;10.208;2022-07-10T06:48:20;3.77;;;1.97;;
64894;SDS011;51588;53.702;10.208;2022-07-10T06:50:46;7.20;;;2.67;;
64894;SDS011;51588;53.702;10.208;2022-07-10T06:53:14;7.43;;;2.83;;
64894;SDS011;51588;53.702;10.208;2022-07-10T06:55:41;6.43;;;2.40;;
64894;SDS011;51588;53.702;10.208;2022-07-10T06:58:07;5.83;;;2.57;;
64894;SDS011;51588;53.702;10.208;2022-07-10T07:00:34;10.33;;;3.03;;
64894;SDS011;51588;53.702;10.208;2022-07-10T07:03:00;10.27;;;2.80;;
64894;SDS011;51588;53.702;10.208;2022-07-10T07:05:28;14.40;;;3.53;;
64894;SDS011;51588;53.702;10.208;2022-07-10T07:07:54;13.30;;;3.87;;
64894;SDS011;51588;53.702;10.208;2022-07-10T07:10:20;15.43;;;2.90;;
64894;SDS011;51588;53.702;10.208;2022-07-10T07:12:47;8.17;;;3.00;;
64894;SDS011;51588;53.702;10.208;2022-07-10T07:15:13;16.93;;;3.70;;
64894;SDS011;51588;53.702;10.208;2022-07-10T07:17:41;10.20;;;3.40;;
64894;SDS011;51588;53.702;10.208;2022-07-10T07:20:34;13.20;;;2.90;;
64894;SDS011;51588;53.702;10.208;2022-07-10T07:23:18;10.17;;;2.90;;
64894;SDS011;51588;53.702;10.208;2022-07-10T07:25:44;12.40;;;2.83;;
64894;SDS011;51588;53.702;10.208;2022-07-10T07:28:12;13.17;;;3.80;;
64894;SDS011;51588;53.702;10.208;2022-07-10T07:30:40;8.87;;;3.40;;
64894;SDS011;51588;53.702;10.208;2022-07-10T07:33:06;8.97;;;2.70;;
64894;SDS011;51588;53.702;10.208;2022-07-10T07:35:34;13.60;;;3.30;;
64894;SDS011;51588;53.702;10.208;2022-07-10T07:38:01;10.80;;;3.20;;
64894;SDS011;51588;53.702;10.208;2022-07-10T07:40:28;12.87;;;3.13;;
64894;SDS011;51588;53.702;10.208;2022-07-10T07:42:55;13.33;;;2.87;;
64894;SDS011;51588;53.702;10.208;2022-07-10T07:45:21;9.83;;;2.77;;
64894;SDS011;51588;53.702;10.208;2022-07-10T07:47:49;12.87;;;3.17;;
64894;SDS011;51588;53.702;10.208;2022-07-10T07:50:16;11.80;;;2.90;;
64894;SDS011;51588;53.702;10.208;2022-07-10T07:52:45;13.67;;;2.77;;
64894;SDS011;51588;53.702;10.208;2022-07-10T07:55:12;8.70;;;2.50;;
64894;SDS011;51588;53.702;10.208;2022-07-10T07:57:39;12.93;;;2.73;;
64894;SDS011;51588;53.702;10.208;2022-07-10T08:00:07;10.90;;;2.73;;
64894;SDS011;51588;53.702;10.208;2022-07-10T08:02:33;7.00;;;2.60;;
64894;SDS011;51588;53.702;10.208;2022-07-10T08:05:00;18.60;;;2.67;;
64894;SDS011;51588;53.702;10.208;2022-07-10T08:07:32;13.50;;;2.67;;
64894;SDS011;51588;53.702;10.208;2022-07-10T08:10:00;9.47;;;3.10;;
64894;SDS011;51588;53.702;10.208;2022-07-10T08:12:26;111.70;;;16.00;;
64894;SDS011;51588;53.702;10.208;2022-07-10T08:14:53;124.20;;;17.43;;
64894;SDS011;51588;53.702;10.208;2022-07-10T08:17:19;87.67;;;13.60;;
64894;SDS011;51588;53.702;10.208;2022-07-10T08:19:46;85.33;;;14.30;;
64894;SDS011;51588;53.702;10.208;2022-07-10T08:22:13;115.37;;;19.13;;
64894;SDS011;51588;53.702;10.208;2022-07-10T08:24:39;144.43;;;22.67;;
64894;SDS011;51588;53.702;10.208;2022-07-10T08:27:07;92.73;;;16.57;;
64894;SDS011;51588;53.702;10.208;2022-07-10T08:29:33;73.70;;;14.23;;
64894;SDS011;51588;53.702;10.208;2022-07-10T08:32:00;68.57;;;14.50;;
64894;SDS011;51588;53.702;10.208;2022-07-10T08:34:26;75.47;;;12.10;;
64894;SDS011;51588;53.702;10.208;2022-07-10T08:36:53;73.60;;;11.13;;
64894;SDS011;51588;53.702;10.208;2022-07-10T08:39:20;49.30;;;10.13;;
64894;SDS011;51588;53.702;10.208;2022-07-10T08:41:47;38.67;;;7.50;;
64894;SDS011;51588;53.702;10.208;2022-07-10T08:44:16;40.43;;;7.10;;
64894;SDS011;51588;53.702;10.208;2022-07-10T08:46:43;75.57;;;15.50;;
64894;SDS011;51588;53.702;10.208;2022-07-10T08:49:10;95.83;;;15.60;;
64894;SDS011;51588;53.702;10.208;2022-07-10T08:51:37;60.90;;;11.53;;
64894;SDS011;51588;53.702;10.208;2022-07-10T08:54:06;53.33;;;10.27;;
64894;SDS011;51588;53.702;10.208;2022-07-10T08:56:34;47.07;;;10.23;;
64894;SDS011;51588;53.702;10.208;2022-07-10T08:59:02;44.13;;;7.80;;
64894;SDS011;51588;53.702;10.208;2022-07-10T09:01:30;45.73;;;8.40;;
64894;SDS011;51588;53.702;10.208;2022-07-10T09:03:57;43.33;;;7.67;;
64894;SDS011;51588;53.702;10.208;2022-07-10T09:06:23;41.40;;;7.20;;
64894;SDS011;51588;53.702;10.208;2022-07-10T09:09:00;37.13;;;6.90;;
64894;SDS011;51588;53.702;10.208;2022-07-10T09:11:27;25.97;;;6.30;;
64894;SDS011;51588;53.702;10.208;2022-07-10T09:13:56;22.37;;;5.53;;
64894;SDS011;51588;53.702;10.208;2022-07-10T09:16:22;26.40;;;6.23;;
64894;SDS011;51588;53.702;10.208;2022-07-10T09:18:50;32.80;;;5.80;;
64894;SDS011;51588;53.702;10.208;2022-07-10T09:21:17;19.47;;;5.10;;
64894;SDS011;51588;53.702;10.208;2022-07-10T09:23:43;33.33;;;6.20;;
64894;SDS011;51588;53.702;10.208;2022-07-10T09:26:10;23.43;;;5.00;;
64894;SDS011;51588;53.702;10.208;2022-07-10T09:28:37;21.27;;;5.33;;
64894;SDS011;51588;53.702;10.208;2022-07-10T09:31:03;21.70;;;4.40;;
64894;SDS011;51588;53.702;10.208;2022-07-10T09:33:30;14.30;;;4.17;;
64894;SDS011;51588;53.702;10.208;2022-07-10T09:36:01;19.80;;;4.33;;
64894;SDS011;51588;53.702;10.208;2022-07-10T09:38:31;10.80;;;3.90;;
64894;SDS011;51588;53.702;10.208;2022-07-10T09:41:14;11.10;;;3.17;;
64894;SDS011;51588;53.702;10.208;2022-07-10T09:43:42;18.37;;;4.30;;
64894;SDS011;51588;53.702;10.208;2022-07-10T09:46:09;12.23;;;3.57;;
64894;SDS011;51588;53.702;10.208;2022-07-10T09:48:35;11.43;;;3.60;;
64894;SDS011;51588;53.702;10.208;2022-07-10T09:51:03;13.77;;;3.40;;
64894;SDS011;51588;53.702;10.208;2022-07-10T09:53:29;14.40;;;3.63;;
64894;SDS011;51588;53.702;10.208;2022-07-10T09:55:57;9.90;;;3.37;;
64894;SDS011;51588;53.702;10.208;2022-07-10T09:58:25;11.17;;;3.67;;
64894;SDS011;51588;53.702;10.208;2022-07-10T10:00:54;14.00;;;3.07;;
64894;SDS011;51588;53.702;10.208;2022-07-10T10:03:22;8.33;;;3.13;;
64894;SDS011;51588;53.702;10.208;2022-07-10T10:05:52;10.23;;;2.73;;
64894;SDS011;51588;53.702;10.208;2022-07-10T10:08:21;10.07;;;2.77;;
64894;SDS011;51588;53.702;10.208;2022-07-10T10:10:49;9.00;;;3.03;;
64894;SDS011;51588;53.702;10.208;2022-07-10T10:13:17;8.60;;;2.70;;
64894;SDS011;51588;53.702;10.208;2022-07-10T10:15:44;7.83;;;2.80;;
64894;SDS011;51588;53.702;10.208;2022-07-10T10:18:12;7.50;;;2.70;;
64894;SDS011;51588;53.702;10.208;2022-07-10T10:20:39;10.67;;;2.93;;
64894;SDS011;51588;53.702;10.208;2022-07-10T10:23:10;6.40;;;2.40;;
64894;SDS011;51588;53.702;10.208;2022-07-10T10:25:38;8.70;;;2.63;;
64894;SDS011;51588;53.702;10.208;2022-07-10T10:28:05;5.70;;;2.43;;
64894;SDS011;51588;53.702;10.208;2022-07-10T10:30:32;5.73;;;2.43;;
64894;SDS011;51588;53.702;10.208;2022-07-10T10:32:59;7.87;;;2.60;;
64894;SDS011;51588;53.702;10.208;2022-07-10T10:35:44;5.37;;;2.50;;
64894;SDS011;51588;53.702;10.208;2022-07-10T10:38:12;5.87;;;2.40;;
64894;SDS011;51588;53.702;10.208;2022-07-10T10:40:39;5.43;;;2.57;;
64894;SDS011;51588;53.702;10.208;2022-07-10T10:43:18;11.17;;;2.57;;
64894;SDS011;51588;53.702;10.208;2022-07-10T10:45:45;7.00;;;2.17;;
64894;SDS011;51588;53.702;10.208;2022-07-10T10:48:12;9.93;;;3.63;;
64894;SDS011;51588;53.702;10.208;2022-07-10T10:50:40;6.83;;;2.30;;
64894;SDS011;51588;53.702;10.208;2022-07-10T10:53:12;4.80;;;2.27;;
64894;SDS011;51588;53.702;10.208;2022-07-10T10:55:39;5.83;;;2.20;;
64894;SDS011;51588;53.702;10.208;2022-07-10T10:58:13;5.50;;;2.30;;
64894;SDS011;51588;53.702;10.208;2022-07-10T11:00:40;6.93;;;2.50;;
64894;SDS011;51588;53.702;10.208;2022-07-10T11:03:17;4.67;;;2.10;;
64894;SDS011;51588;53.702;10.208;2022-07-10T11:05:44;8.17;;;2.20;;
64894;SDS011;51588;53.702;10.208;2022-07-10T11:08:11;4.27;;;2.30;;
64894;SDS011;51588;53.702;10.208;2022-07-10T11:10:38;4.10;;;1.83;;
64894;SDS011;51588;53.702;10.208;2022-07-10T11:13:06;5.80;;;2.27;;
64894;SDS011;51588;53.702;10.208;2022-07-10T11:15:34;5.47;;;1.80;;
64894;SDS011;51588;53.702;10.208;2022-07-10T11:18:04;4.50;;;1.93;;
64894;SDS011;51588;53.702;10.208;2022-07-10T11:20:31;8.17;;;2.33;;
64894;SDS011;51588;53.702;10.208;2022-07-10T11:23:01;6.20;;;2.37;;
64894;SDS011;51588;53.702;10.208;2022-07-10T11:25:36;3.93;;;1.97;;
64894;SDS011;51588;53.702;10.208;2022-07-10T11:28:09;5.50;;;2.20;;
64894;SDS011;51588;53.702;10.208;2022-07-10T11:30:46;4.30;;;1.90;;
64894;SDS011;51588;53.702;10.208;2022-07-10T11:33:13;5.17;;;2.40;;
64894;SDS011;51588;53.702;10.208;2022-07-10T11:35:40;5.97;;;2.47;;
64894;SDS011;51588;53.702;10.208;2022-07-10T11:38:06;5.37;;;2.20;;
64894;SDS011;51588;53.702;10.208;2022-07-10T11:40:35;4.67;;;2.20;;
64894;SDS011;51588;53.702;10.208;2022-07-10T11:43:02;6.30;;;2.30;;
64894;SDS011;51588;53.702;10.208;2022-07-10T11:45:32;5.47;;;2.10;;
64894;SDS011;51588;53.702;10.208;2022-07-10T11:48:02;3.63;;;1.90;;
64894;SDS011;51588;53.702;10.208;2022-07-10T11:50:33;3.80;;;1.83;;
64894;SDS011;51588;53.702;10.208;2022-07-10T11:53:00;4.00;;;2.00;;
64894;SDS011;51588;53.702;10.208;2022-07-10T11:55:27;4.00;;;1.90;;
64894;SDS011;51588;53.702;10.208;2022-07-10T11:57:54;5.17;;;2.07;;
64894;SDS011;51588;53.702;10.208;2022-07-10T12:00:21;4.87;;;1.87;;
64894;SDS011;51588;53.702;10.208;2022-07-10T12:02:50;4.73;;;1.97;;
64894;SDS011;51588;53.702;10.208;2022-07-10T12:05:29;3.13;;;1.60;;
64894;SDS011;51588;53.702;10.208;2022-07-10T12:07:55;2.13;;;1.50;;
64894;SDS011;51588;53.702;10.208;2022-07-10T12:10:24;4.10;;;1.90;;
64894;SDS011;51588;53.702;10.208;2022-07-10T12:12:51;2.93;;;1.60;;
64894;SDS011;51588;53.702;10.208;2022-07-10T12:15:30;2.50;;;1.53;;
64894;SDS011;51588;53.702;10.208;2022-07-10T12:17:57;3.20;;;1.90;;
64894;SDS011;51588;53.702;10.208;2022-07-10T12:20:24;5.70;;;2.27;;
64894;SDS011;51588;53.702;10.208;2022-07-10T12:22:51;4.17;;;1.73;;
64894;SDS011;51588;53.702;10.208;2022-07-10T12:25:18;3.40;;;1.57;;
64894;SDS011;51588;53.702;10.208;2022-07-10T12:27:45;3.20;;;1.57;;
64894;SDS011;51588;53.702;10.208;2022-07-10T12:30:11;3.77;;;1.60;;
64894;SDS011;51588;53.702;10.208;2022-07-10T12:32:39;3.27;;;1.77;;
64894;SDS011;51588;53.702;10.208;2022-07-10T12:35:07;9.77;;;2.17;;
64894;SDS011;51588;53.702;10.208;2022-07-10T12:37:46;5.60;;;1.77;;
64894;SDS011;51588;53.702;10.208;2022-07-10T12:40:24;4.20;;;1.60;;
64894;SDS011;51588;53.702;10.208;2022-07-10T12:43:00;4.60;;;1.70;;
64894;SDS011;51588;53.702;10.208;2022-07-10T12:45:27;3.53;;;1.47;;
64894;SDS011;51588;53.702;10.208;2022-07-10T12:47:53;3.73;;;1.90;;
64894;SDS011;51588;53.702;10.208;2022-07-10T12:50:22;2.60;;;1.60;;
64894;SDS011;51588;53.702;10.208;2022-07-10T12:52:50;4.30;;;1.60;;
64894;SDS011;51588;53.702;10.208;2022-07-10T12:55:34;4.37;;;1.67;;
64894;SDS011;51588;53.702;10.208;2022-07-10T12:58:04;2.47;;;1.57;;
64894;SDS011;51588;53.702;10.208;2022-07-10T13:00:32;3.43;;;1.50;;
64894;SDS011;51588;53.702;10.208;2022-07-10T13:03:00;3.50;;;1.93;;
64894;SDS011;51588;53.702;10.208;2022-07-10T13:05:29;3.57;;;1.60;;
64894;SDS011;51588;53.702;10.208;2022-07-10T13:08:08;4.00;;;1.53;;
64894;SDS011;51588;53.702;10.208;2022-07-10T13:10:36;4.17;;;1.77;;
64894;SDS011;51588;53.702;10.208;2022-07-10T13:13:04;3.40;;;1.87;;
64894;SDS011;51588;53.702;10.208;2022-07-10T13:15:31;4.20;;;1.50;;
64894;SDS011;51588;53.702;10.208;2022-07-10T13:17:59;2.93;;;1.43;;
64894;SDS011;51588;53.702;10.208;2022-07-10T13:20:26;5.17;;;1.93;;
64894;SDS011;51588;53.702;10.208;2022-07-10T13:22:53;3.87;;;1.80;;
64894;SDS011;51588;53.702;10.208;2022-07-10T13:25:20;3.73;;;1.70;;
64894;SDS011;51588;53.702;10.208;2022-07-10T13:27:46;3.33;;;1.60;;
64894;SDS011;51588;53.702;10.208;2022-07-10T13:30:12;4.17;;;1.80;;
64894;SDS011;51588;53.702;10.208;2022-07-10T13:32:39;3.73;;;1.83;;
64894;SDS011;51588;53.702;10.208;2022-07-10T13:35:05;5.40;;;1.77;;
64894;SDS011;51588;53.702;10.208;2022-07-10T13:37:32;2.87;;;1.40;;
64894;SDS011;51588;53.702;10.208;2022-07-10T13:39:59;4.37;;;1.67;;
64894;SDS011;51588;53.702;10.208;2022-07-10T13:42:26;2.17;;;1.47;;
64894;SDS011;51588;53.702;10.208;2022-07-10T13:44:53;3.80;;;1.67;;
64894;SDS011;51588;53.702;10.208;2022-07-10T13:47:20;4.20;;;2.00;;
64894;SDS011;51588;53.702;10.208;2022-07-10T13:49:46;3.00;;;1.47;;
64894;SDS011;51588;53.702;10.208;2022-07-10T13:52:13;3.17;;;1.50;;
64894;SDS011;51588;53.702;10.208;2022-07-10T13:54:39;5.17;;;1.60;;
64894;SDS011;51588;53.702;10.208;2022-07-10T13:57:07;3.17;;;1.70;;
64894;SDS011;51588;53.702;10.208;2022-07-10T13:59:34;1.80;;;1.40;;
64894;SDS011;51588;53.702;10.208;2022-07-10T14:02:00;2.67;;;1.40;;
64894;SDS011;51588;53.702;10.208;2022-07-10T14:04:26;3.43;;;1.40;;
64894;SDS011;51588;53.702;10.208;2022-07-10T14:06:53;3.60;;;1.40;;
64894;SDS011;51588;53.702;10.208;2022-07-10T14:09:19;4.83;;;1.60;;
64894;SDS011;51588;53.702;10.208;2022-07-10T14:11:47;4.27;;;2.23;;
64894;SDS011;51588;53.702;10.208;2022-07-10T14:14:15;2.87;;;1.47;;
64894;SDS011;51588;53.702;10.208;2022-07-10T14:16:41;4.73;;;1.87;;
64894;SDS011;51588;53.702;10.208;2022-07-10T14:19:08;3.70;;;1.50;;
64894;SDS011;51588;53.702;10.208;2022-07-10T14:21:34;3.67;;;1.50;;
64894;SDS011;51588;53.702;10.208;2022-07-10T14:24:03;3.33;;;2.00;;
64894;SDS011;51588;53.702;10.208;2022-07-10T14:26:29;4.80;;;1.60;;
64894;SDS011;51588;53.702;10.208;2022-07-10T14:28:56;2.67;;;1.43;;
64894;SDS011;51588;53.702;10.208;2022-07-10T14:31:24;3.90;;;1.80;;
64894;SDS011;51588;53.702;10.208;2022-07-10T14:33:50;3.60;;;1.83;;